Terminal Aerodrome Forecast
Issued by NWS

Home | Current Version | Previous Version | Text Only | Print | Product List | Glossary On
Versions: 1 2 3 4 5 6 7 8 9 10 11 12 13 14
032
FTUS43 KGRB 211135
TAFCWA
TAF
KCWA 211135Z 2112/2212 00000KT 3SM BR BKN100
     FM211600 09004KT 6SM BR SCT100 BKN250
     FM212200 06005KT P6SM OVC070
     FM220400 06007KT 5SM -SN BR OVC011
     FM220900 05011KT 1SM -SN BR OVC005=

USA.gov is the U.S. government's official web portal to all federal, state and local government web resources and services.